sensor_id;sensor_type;location;lat;lon;timestamp;pressure;altitude;pressure_sealevel;temperature;humidity
57234;BME280;43090;52.604;13.318;2023-02-03T00:02:32;101569.75;;;1.39;100.00
57234;BME280;43090;52.604;13.318;2023-02-03T00:05:08;101508.91;;;1.02;100.00
57234;BME280;43090;52.604;13.318;2023-02-03T00:07:38;101524.22;;;1.28;100.00
57234;BME280;43090;52.604;13.318;2023-02-03T00:10:08;101545.97;;;1.41;100.00
57234;BME280;43090;52.604;13.318;2023-02-03T00:12:41;101499.72;;;1.21;100.00
57234;BME280;43090;52.604;13.318;2023-02-03T00:15:10;101496.09;;;1.27;100.00
57234;BME280;43090;52.604;13.318;2023-02-03T00:17:45;101528.13;;;1.52;100.00
57234;BME280;43090;52.604;13.318;2023-02-03T00:20:15;101513.75;;;1.67;100.00
57234;BME280;43090;52.604;13.318;2023-02-03T00:26:33;101454.41;;;1.43;100.00
57234;BME280;43090;52.604;13.318;2023-02-03T00:29:42;101470.97;;;1.51;100.00
57234;BME280;43090;52.604;13.318;2023-02-03T00:44:05;101426.75;;;1.61;100.00
57234;BME280;43090;52.604;13.318;2023-02-03T00:46:32;101401.09;;;1.67;100.00
57234;BME280;43090;52.604;13.318;2023-02-03T00:49:09;101418.47;;;1.78;100.00
57234;BME280;43090;52.604;13.318;2023-02-03T00:51:44;101415.91;;;1.75;100.00
57234;BME280;43090;52.604;13.318;2023-02-03T00:54:11;101406.72;;;1.52;100.00
57234;BME280;43090;52.604;13.318;2023-02-03T00:56:46;101466.84;;;2.16;100.00
57234;BME280;43090;52.604;13.318;2023-02-03T00:59:13;101408.84;;;1.75;100.00
57234;BME280;43090;52.604;13.318;2023-02-03T01:01:40;101391.00;;;1.85;100.00
57234;BME280;43090;52.604;13.318;2023-02-03T01:15:31;101399.97;;;1.78;100.00
57234;BME280;43090;52.604;13.318;2023-02-03T01:17:58;101377.78;;;1.85;100.00
57234;BME280;43090;52.604;13.318;2023-02-03T01:20:27;101418.97;;;2.28;100.00
57234;BME280;43090;52.604;13.318;2023-02-03T01:22:54;101381.28;;;1.87;100.00
57234;BME280;43090;52.604;13.318;2023-02-03T01:25:21;101412.22;;;2.16;100.00
57234;BME280;43090;52.604;13.318;2023-02-03T01:27:47;101399.31;;;2.06;100.00
57234;BME280;43090;52.604;13.318;2023-02-03T01:30:14;101346.63;;;1.99;100.00
57234;BME280;43090;52.604;13.318;2023-02-03T01:32:40;101398.00;;;2.22;100.00
57234;BME280;43090;52.604;13.318;2023-02-03T01:35:07;101353.84;;;1.93;100.00
57234;BME280;43090;52.604;13.318;2023-02-03T01:37:33;101385.00;;;2.13;100.00
57234;BME280;43090;52.604;13.318;2023-02-03T01:40:00;101388.78;;;2.39;100.00
57234;BME280;43090;52.604;13.318;2023-02-03T01:42:31;101375.53;;;2.06;100.00
57234;BME280;43090;52.604;13.318;2023-02-03T01:45:01;101313.63;;;1.81;100.00
57234;BME280;43090;52.604;13.318;2023-02-03T01:47:35;101323.25;;;2.19;100.00
57234;BME280;43090;52.604;13.318;2023-02-03T01:50:12;101354.06;;;2.18;100.00
57234;BME280;43090;52.604;13.318;2023-02-03T01:52:42;101308.66;;;2.04;100.00
57234;BME280;43090;52.604;13.318;2023-02-03T01:55:17;101342.31;;;2.30;100.00
57234;BME280;43090;52.604;13.318;2023-02-03T01:57:52;101342.25;;;2.33;100.00
57234;BME280;43090;52.604;13.318;2023-02-03T02:00:20;101322.59;;;2.09;100.00
57234;BME280;43090;52.604;13.318;2023-02-03T02:02:48;101273.00;;;1.53;100.00
57234;BME280;43090;52.604;13.318;2023-02-03T02:05:26;101307.69;;;2.08;100.00
57234;BME280;43090;52.604;13.318;2023-02-03T02:07:55;101327.34;;;2.30;100.00
57234;BME280;43090;52.604;13.318;2023-02-03T02:10:23;101281.88;;;1.85;100.00
57234;BME280;43090;52.604;13.318;2023-02-03T02:12:50;101304.56;;;2.25;100.00
57234;BME280;43090;52.604;13.318;2023-02-03T02:15:18;101281.28;;;2.08;100.00
57234;BME280;43090;52.604;13.318;2023-02-03T02:24:41;101229.75;;;1.58;100.00
57234;BME280;43090;52.604;13.318;2023-02-03T02:26:49;101229.72;;;1.93;100.00
57234;BME280;43090;52.604;13.318;2023-02-03T02:41:28;101196.00;;;2.03;100.00
57234;BME280;43090;52.604;13.318;2023-02-03T02:46:40;101155.34;;;1.77;100.00
57234;BME280;43090;52.604;13.318;2023-02-03T02:49:19;101113.56;;;1.28;100.00
57234;BME280;43090;52.604;13.318;2023-02-03T02:51:48;101164.09;;;1.79;100.00
57234;BME280;43090;52.604;13.318;2023-02-03T02:54:18;101149.47;;;1.97;100.00
57234;BME280;43090;52.604;13.318;2023-02-03T02:56:51;101166.22;;;1.97;100.00
57234;BME280;43090;52.604;13.318;2023-02-03T02:59:19;101131.81;;;1.99;100.00
57234;BME280;43090;52.604;13.318;2023-02-03T03:01:45;101141.06;;;2.14;100.00
57234;BME280;43090;52.604;13.318;2023-02-03T03:04:12;101151.81;;;2.38;100.00
57234;BME280;43090;52.604;13.318;2023-02-03T03:06:45;101093.13;;;1.66;100.00
57234;BME280;43090;52.604;13.318;2023-02-03T03:09:40;101084.66;;;1.87;100.00
57234;BME280;43090;52.604;13.318;2023-02-03T03:12:23;101111.13;;;1.83;100.00
57234;BME280;43090;52.604;13.318;2023-02-03T03:14:57;101108.91;;;1.99;100.00
57234;BME280;43090;52.604;13.318;2023-02-03T03:17:27;101062.81;;;1.81;100.00
57234;BME280;43090;52.604;13.318;2023-02-03T03:19:59;101032.63;;;1.60;100.00
57234;BME280;43090;52.604;13.318;2023-02-03T03:22:31;101063.94;;;2.03;100.00
57234;BME280;43090;52.604;13.318;2023-02-03T03:25:16;101030.56;;;1.70;100.00
57234;BME280;43090;52.604;13.318;2023-02-03T03:27:49;101060.91;;;1.87;100.00
57234;BME280;43090;52.604;13.318;2023-02-03T03:30:38;101087.88;;;2.26;100.00
57234;BME280;43090;52.604;13.318;2023-02-03T03:33:13;101064.00;;;1.99;100.00
57234;BME280;43090;52.604;13.318;2023-02-03T03:35:57;101052.94;;;1.88;100.00
57234;BME280;43090;52.604;13.318;2023-02-03T03:38:36;101037.19;;;2.13;100.00
57234;BME280;43090;52.604;13.318;2023-02-03T03:41:07;101002.66;;;1.91;100.00
57234;BME280;43090;52.604;13.318;2023-02-03T03:43:38;101028.31;;;2.16;100.00
57234;BME280;43090;52.604;13.318;2023-02-03T03:46:15;101055.88;;;2.36;100.00
57234;BME280;43090;52.604;13.318;2023-02-03T03:48:57;101058.09;;;2.21;100.00
57234;BME280;43090;52.604;13.318;2023-02-03T03:51:30;101048.88;;;2.35;100.00
57234;BME280;43090;52.604;13.318;2023-02-03T03:54:04;101024.94;;;2.11;100.00
57234;BME280;43090;52.604;13.318;2023-02-03T03:56:38;101022.06;;;2.19;100.00
57234;BME280;43090;52.604;13.318;2023-02-03T03:59:11;100995.06;;;1.80;100.00
57234;BME280;43090;52.604;13.318;2023-02-03T04:01:54;101066.41;;;2.37;100.00
57234;BME280;43090;52.604;13.318;2023-02-03T04:04:23;100982.78;;;1.79;100.00
57234;BME280;43090;52.604;13.318;2023-02-03T04:06:57;100996.50;;;2.19;100.00
57234;BME280;43090;52.604;13.318;2023-02-03T04:09:24;101017.88;;;2.40;100.00
57234;BME280;43090;52.604;13.318;2023-02-03T04:11:51;100997.63;;;2.39;100.00
57234;BME280;43090;52.604;13.318;2023-02-03T04:14:36;100953.88;;;2.03;100.00
57234;BME280;43090;52.604;13.318;2023-02-03T04:17:07;100960.63;;;2.39;100.00
57234;BME280;43090;52.604;13.318;2023-02-03T04:19:34;100933.81;;;1.97;100.00
57234;BME280;43090;52.604;13.318;2023-02-03T04:22:00;100972.41;;;2.55;100.00
57234;BME280;43090;52.604;13.318;2023-02-03T04:24:27;100955.00;;;2.23;100.00
57234;BME280;43090;52.604;13.318;2023-02-03T04:26:56;100983.66;;;2.35;100.00
57234;BME280;43090;52.604;13.318;2023-02-03T04:29:23;100952.06;;;2.32;100.00
57234;BME280;43090;52.604;13.318;2023-02-03T04:31:49;100950.72;;;2.45;100.00
57234;BME280;43090;52.604;13.318;2023-02-03T04:34:16;100915.66;;;2.40;100.00
57234;BME280;43090;52.604;13.318;2023-02-03T04:36:45;100954.69;;;2.84;100.00
57234;BME280;43090;52.604;13.318;2023-02-03T04:39:55;100916.16;;;2.52;100.00
57234;BME280;43090;52.604;13.318;2023-02-03T04:42:22;100942.59;;;2.77;100.00
57234;BME280;43090;52.604;13.318;2023-02-03T04:44:49;100914.09;;;2.60;100.00
57234;BME280;43090;52.604;13.318;2023-02-03T04:47:17;100898.13;;;2.63;100.00
57234;BME280;43090;52.604;13.318;2023-02-03T04:49:44;100890.75;;;2.73;100.00
57234;BME280;43090;52.604;13.318;2023-02-03T04:52:11;100900.06;;;2.83;100.00
57234;BME280;43090;52.604;13.318;2023-02-03T04:54:38;100876.50;;;2.77;100.00
57234;BME280;43090;52.604;13.318;2023-02-03T04:57:05;100905.19;;;2.88;100.00
57234;BME280;43090;52.604;13.318;2023-02-03T04:59:32;100868.25;;;2.61;100.00
57234;BME280;43090;52.604;13.318;2023-02-03T05:07:57;100863.22;;;3.02;100.00
57234;BME280;43090;52.604;13.318;2023-02-03T05:10:24;100854.41;;;3.02;100.00
57234;BME280;43090;52.604;13.318;2023-02-03T05:12:51;100862.94;;;3.10;100.00
57234;BME280;43090;52.604;13.318;2023-02-03T05:15:17;100883.75;;;3.41;100.00
57234;BME280;43090;52.604;13.318;2023-02-03T05:17:44;100813.59;;;3.09;100.00
57234;BME280;43090;52.604;13.318;2023-02-03T05:20:11;100848.03;;;3.31;100.00
57234;BME280;43090;52.604;13.318;2023-02-03T05:22:46;100849.06;;;3.49;100.00
57234;BME280;43090;52.604;13.318;2023-02-03T05:25:13;100817.03;;;3.33;100.00
57234;BME280;43090;52.604;13.318;2023-02-03T05:27:40;100811.53;;;3.39;100.00
57234;BME280;43090;52.604;13.318;2023-02-03T05:30:11;100832.47;;;3.45;100.00
57234;BME280;43090;52.604;13.318;2023-02-03T05:32:48;100826.53;;;3.61;100.00
57234;BME280;43090;52.604;13.318;2023-02-03T05:35:18;100844.19;;;3.82;100.00
57234;BME280;43090;52.604;13.318;2023-02-03T05:37:45;100791.31;;;3.59;100.00
57234;BME280;43090;52.604;13.318;2023-02-03T05:40:25;100789.97;;;3.71;100.00
57234;BME280;43090;52.604;13.318;2023-02-03T05:43:11;100813.28;;;4.04;100.00
57234;BME280;43090;52.604;13.318;2023-02-03T05:45:38;100809.09;;;3.98;100.00
57234;BME280;43090;52.604;13.318;2023-02-03T05:48:05;100806.13;;;4.26;100.00
57234;BME280;43090;52.604;13.318;2023-02-03T05:50:33;100747.72;;;3.88;100.00
57234;BME280;43090;52.604;13.318;2023-02-03T05:53:05;100767.13;;;4.09;100.00
57234;BME280;43090;52.604;13.318;2023-02-03T05:55:32;100754.13;;;4.03;100.00
57234;BME280;43090;52.604;13.318;2023-02-03T05:57:59;100774.53;;;4.22;100.00
57234;BME280;43090;52.604;13.318;2023-02-03T06:00:27;100745.38;;;4.22;100.00
57234;BME280;43090;52.604;13.318;2023-02-03T06:03:00;100746.84;;;4.29;100.00
57234;BME280;43090;52.604;13.318;2023-02-03T06:05:50;100754.72;;;4.49;100.00
57234;BME280;43090;52.604;13.318;2023-02-03T06:08:16;100725.00;;;4.43;100.00
57234;BME280;43090;52.604;13.318;2023-02-03T06:10:43;100770.44;;;4.73;100.00
57234;BME280;43090;52.604;13.318;2023-02-03T06:13:12;100704.69;;;4.42;100.00
57234;BME280;43090;52.604;13.318;2023-02-03T06:15:42;100686.38;;;4.37;100.00
57234;BME280;43090;52.604;13.318;2023-02-03T06:18:13;100708.31;;;4.60;100.00
57234;BME280;43090;52.604;13.318;2023-02-03T06:20:42;100701.34;;;4.57;100.00
57234;BME280;43090;52.604;13.318;2023-02-03T06:27:10;100750.53;;;4.83;100.00
57234;BME280;43090;52.604;13.318;2023-02-03T06:45:12;100739.69;;;5.07;100.00
57234;BME280;43090;52.604;13.318;2023-02-03T06:47:53;100665.72;;;4.82;100.00
57234;BME280;43090;52.604;13.318;2023-02-03T07:29:31;100579.34;;;5.11;100.00
57234;BME280;43090;52.604;13.318;2023-02-03T07:43:08;100596.88;;;5.49;100.00
57234;BME280;43090;52.604;13.318;2023-02-03T07:45:39;100591.34;;;5.54;100.00
57234;BME280;43090;52.604;13.318;2023-02-03T07:48:05;100598.34;;;5.72;100.00
57234;BME280;43090;52.604;13.318;2023-02-03T07:50:32;100551.63;;;5.34;100.00
57234;BME280;43090;52.604;13.318;2023-02-03T07:53:16;100580.56;;;5.57;100.00
57234;BME280;43090;52.604;13.318;2023-02-03T07:56:30;100538.50;;;5.31;100.00
57234;BME280;43090;52.604;13.318;2023-02-03T07:59:02;100563.25;;;5.49;100.00
57234;BME280;43090;52.604;13.318;2023-02-03T08:01:29;100587.38;;;5.62;100.00
57234;BME280;43090;52.604;13.318;2023-02-03T08:19:36;100548.31;;;5.80;100.00
57234;BME280;43090;52.604;13.318;2023-02-03T08:30:14;100524.38;;;5.64;100.00
57234;BME280;43090;52.604;13.318;2023-02-03T08:36:44;100473.53;;;5.39;100.00
57234;BME280;43090;52.604;13.318;2023-02-03T08:39:23;100496.78;;;5.67;100.00
57234;BME280;43090;52.604;13.318;2023-02-03T08:41:56;100464.09;;;5.49;100.00
57234;BME280;43090;52.604;13.318;2023-02-03T08:44:46;100492.69;;;5.77;100.00
57234;BME280;43090;52.604;13.318;2023-02-03T08:47:15;100463.56;;;5.60;100.00
57234;BME280;43090;52.604;13.318;2023-02-03T08:49:42;100457.88;;;5.66;100.00
57234;BME280;43090;52.604;13.318;2023-02-03T08:52:18;100465.00;;;5.81;100.00
57234;BME280;43090;52.604;13.318;2023-02-03T08:54:51;100473.75;;;5.83;100.00
57234;BME280;43090;52.604;13.318;2023-02-03T08:57:23;100469.38;;;5.82;100.00
57234;BME280;43090;52.604;13.318;2023-02-03T08:59:53;100475.31;;;5.88;100.00
57234;BME280;43090;52.604;13.318;2023-02-03T09:02:21;100463.97;;;5.84;100.00
57234;BME280;43090;52.604;13.318;2023-02-03T09:04:55;100461.66;;;5.94;100.00
57234;BME280;43090;52.604;13.318;2023-02-03T09:07:27;100459.28;;;5.89;100.00
57234;BME280;43090;52.604;13.318;2023-02-03T09:09:56;100436.72;;;5.64;100.00
57234;BME280;43090;52.604;13.318;2023-02-03T09:12:28;100421.66;;;5.65;100.00
57234;BME280;43090;52.604;13.318;2023-02-03T09:15:03;100455.00;;;5.87;100.00
57234;BME280;43090;52.604;13.318;2023-02-03T09:17:40;100428.31;;;5.88;100.00
57234;BME280;43090;52.604;13.318;2023-02-03T09:20:07;100460.81;;;5.93;100.00
57234;BME280;43090;52.604;13.318;2023-02-03T09:23:00;100434.88;;;5.98;100.00
57234;BME280;43090;52.604;13.318;2023-02-03T09:25:43;100401.16;;;5.83;100.00
57234;BME280;43090;52.604;13.318;2023-02-03T09:28:17;100417.34;;;5.94;100.00
57234;BME280;43090;52.604;13.318;2023-02-03T09:31:49;100440.56;;;6.23;100.00
57234;BME280;43090;52.604;13.318;2023-02-03T09:34:18;100395.16;;;5.79;100.00
57234;BME280;43090;52.604;13.318;2023-02-03T09:36:52;100402.34;;;5.93;100.00
57234;BME280;43090;52.604;13.318;2023-02-03T09:39:19;100430.47;;;5.97;100.00
57234;BME280;43090;52.604;13.318;2023-02-03T09:42:10;100366.63;;;5.83;100.00
57234;BME280;43090;52.604;13.318;2023-02-03T09:45:23;100423.59;;;6.25;100.00
57234;BME280;43090;52.604;13.318;2023-02-03T09:48:12;100415.84;;;6.37;100.00
57234;BME280;43090;52.604;13.318;2023-02-03T09:50:40;100385.47;;;6.10;100.00
57234;BME280;43090;52.604;13.318;2023-02-03T09:53:38;100362.78;;;6.19;100.00
57234;BME280;43090;52.604;13.318;2023-02-03T09:59:39;100349.50;;;6.19;100.00
57234;BME280;43090;52.604;13.318;2023-02-03T10:05:21;100302.50;;;6.05;100.00
57234;BME280;43090;52.604;13.318;2023-02-03T10:15:51;100352.06;;;6.51;100.00
57234;BME280;43090;52.604;13.318;2023-02-03T10:18:38;100289.44;;;6.16;100.00
57234;BME280;43090;52.604;13.318;2023-02-03T10:21:16;100342.00;;;6.56;100.00
57234;BME280;43090;52.604;13.318;2023-02-03T10:23:45;100336.81;;;6.39;100.00
57234;BME280;43090;52.604;13.318;2023-02-03T10:26:18;100338.63;;;6.38;100.00
57234;BME280;43090;52.604;13.318;2023-02-03T10:29:12;100405.25;;;6.51;100.00
57234;BME280;43090;52.604;13.318;2023-02-03T10:31:45;100376.94;;;6.50;100.00
57234;BME280;43090;52.604;13.318;2023-02-03T10:34:15;100361.41;;;6.28;100.00
57234;BME280;43090;52.604;13.318;2023-02-03T10:40:04;100474.44;;;6.35;100.00
57234;BME280;43090;52.604;13.318;2023-02-03T10:42:30;100469.47;;;5.97;100.00
57234;BME280;43090;52.604;13.318;2023-02-03T10:45:19;100394.31;;;5.47;100.00
57234;BME280;43090;52.604;13.318;2023-02-03T10:47:52;100468.09;;;5.74;100.00
57234;BME280;43090;52.604;13.318;2023-02-03T10:50:34;100412.22;;;5.59;100.00
57234;BME280;43090;52.604;13.318;2023-02-03T10:53:31;100435.16;;;5.92;100.00
57234;BME280;43090;52.604;13.318;2023-02-03T10:56:34;100428.84;;;5.79;100.00
57234;BME280;43090;52.604;13.318;2023-02-03T10:59:09;100382.75;;;5.48;100.00
57234;BME280;43090;52.604;13.318;2023-02-03T11:01:53;100393.09;;;5.53;100.00
57234;BME280;43090;52.604;13.318;2023-02-03T11:04:28;100444.09;;;5.75;100.00
57234;BME280;43090;52.604;13.318;2023-02-03T11:07:01;100419.25;;;5.60;100.00
57234;BME280;43090;52.604;13.318;2023-02-03T11:09:39;100374.94;;;5.45;100.00
57234;BME280;43090;52.604;13.318;2023-02-03T11:12:11;100436.47;;;5.85;100.00
57234;BME280;43090;52.604;13.318;2023-02-03T11:14:43;100371.03;;;5.52;100.00
57234;BME280;43090;52.604;13.318;2023-02-03T11:17:29;100364.50;;;5.58;100.00
57234;BME280;43090;52.604;13.318;2023-02-03T11:20:13;100414.84;;;5.91;100.00
57234;BME280;43090;52.604;13.318;2023-02-03T11:22:41;100383.88;;;5.76;100.00
57234;BME280;43090;52.604;13.318;2023-02-03T11:25:42;100385.22;;;5.83;100.00
57234;BME280;43090;52.604;13.318;2023-02-03T11:28:12;100382.47;;;5.84;100.00
57234;BME280;43090;52.604;13.318;2023-02-03T11:30:42;100397.22;;;6.06;100.00
57234;BME280;43090;52.604;13.318;2023-02-03T11:33:17;100405.03;;;6.40;100.00
57234;BME280;43090;52.604;13.318;2023-02-03T11:35:58;100430.88;;;6.52;100.00
57234;BME280;43090;52.604;13.318;2023-02-03T11:38:30;100392.91;;;6.20;100.00
57234;BME280;43090;52.604;13.318;2023-02-03T11:40:59;100379.88;;;6.15;100.00
57234;BME280;43090;52.604;13.318;2023-02-03T11:43:28;100424.78;;;6.36;100.00
57234;BME280;43090;52.604;13.318;2023-02-03T11:46:14;100389.03;;;6.25;100.00
57234;BME280;43090;52.604;13.318;2023-02-03T11:49:03;100389.63;;;6.30;100.00
57234;BME280;43090;52.604;13.318;2023-02-03T11:51:44;100431.38;;;6.59;100.00
57234;BME280;43090;52.604;13.318;2023-02-03T11:54:32;100392.66;;;6.39;100.00
57234;BME280;43090;52.604;13.318;2023-02-03T12:11:19;100449.03;;;6.90;99.68
57234;BME280;43090;52.604;13.318;2023-02-03T12:17:00;100439.53;;;6.86;97.59
57234;BME280;43090;52.604;13.318;2023-02-03T12:20:04;100404.25;;;6.82;97.71
57234;BME280;43090;52.604;13.318;2023-02-03T12:23:00;100435.59;;;6.77;96.92
57234;BME280;43090;52.604;13.318;2023-02-03T12:26:14;100431.44;;;6.88;95.25
57234;BME280;43090;52.604;13.318;2023-02-03T12:34:55;100432.03;;;7.07;90.86
57234;BME280;43090;52.604;13.318;2023-02-03T12:41:07;100408.75;;;7.25;87.90
57234;BME280;43090;52.604;13.318;2023-02-03T12:43:42;100450.59;;;7.38;85.73
57234;BME280;43090;52.604;13.318;2023-02-03T12:49:33;100491.25;;;6.66;91.14
57234;BME280;43090;52.604;13.318;2023-02-03T12:55:20;100587.34;;;4.19;100.00
57234;BME280;43090;52.604;13.318;2023-02-03T12:57:57;100578.69;;;3.96;100.00
57234;BME280;43090;52.604;13.318;2023-02-03T13:00:35;100538.75;;;3.82;100.00
57234;BME280;43090;52.604;13.318;2023-02-03T13:05:51;100551.47;;;3.93;100.00
57234;BME280;43090;52.604;13.318;2023-02-03T13:08:30;100551.56;;;4.10;100.00
57234;BME280;43090;52.604;13.318;2023-02-03T13:14:30;100568.25;;;4.31;100.00
57234;BME280;43090;52.604;13.318;2023-02-03T13:17:07;100577.31;;;4.26;100.00
57234;BME280;43090;52.604;13.318;2023-02-03T13:20:05;100544.47;;;4.11;100.00
57234;BME280;43090;52.604;13.318;2023-02-03T13:22:38;100580.13;;;4.23;100.00
57234;BME280;43090;52.604;13.318;2023-02-03T13:34:01;100537.66;;;4.24;100.00
57234;BME280;43090;52.604;13.318;2023-02-03T13:36:56;100532.84;;;4.32;100.00
57234;BME280;43090;52.604;13.318;2023-02-03T13:43:21;100485.28;;;4.29;100.00
57234;BME280;43090;52.604;13.318;2023-02-03T13:48:51;100511.44;;;4.55;100.00
57234;BME280;43090;52.604;13.318;2023-02-03T13:51:29;100503.75;;;4.67;100.00
57234;BME280;43090;52.604;13.318;2023-02-03T13:54:26;100494.94;;;4.67;100.00
57234;BME280;43090;52.604;13.318;2023-02-03T14:03:44;100497.94;;;5.12;100.00
57234;BME280;43090;52.604;13.318;2023-02-03T14:12:20;100465.56;;;5.39;100.00
57234;BME280;43090;52.604;13.318;2023-02-03T14:15:20;100511.63;;;5.71;100.00
57234;BME280;43090;52.604;13.318;2023-02-03T14:24:41;100474.72;;;5.49;100.00
57234;BME280;43090;52.604;13.318;2023-02-03T14:27:27;100522.25;;;5.71;99.86
57234;BME280;43090;52.604;13.318;2023-02-03T14:37:33;100492.00;;;5.74;98.45
57234;BME280;43090;52.604;13.318;2023-02-03T14:59:09;100531.84;;;5.90;94.93
57234;BME280;43090;52.604;13.318;2023-02-03T15:04:27;100555.69;;;5.91;93.97
57234;BME280;43090;52.604;13.318;2023-02-03T15:06:54;100506.72;;;5.63;94.22
57234;BME280;43090;52.604;13.318;2023-02-03T15:09:44;100517.28;;;5.65;92.69
57234;BME280;43090;52.604;13.318;2023-02-03T15:12:35;100577.03;;;5.90;94.55
57234;BME280;43090;52.604;13.318;2023-02-03T15:20:00;100604.81;;;5.84;93.19
57234;BME280;43090;52.604;13.318;2023-02-03T15:22:39;100564.25;;;5.47;93.77
57234;BME280;43090;52.604;13.318;2023-02-03T15:25:21;100581.09;;;5.63;92.40
57234;BME280;43090;52.604;13.318;2023-02-03T15:27:54;100575.47;;;5.70;91.69
57234;BME280;43090;52.604;13.318;2023-02-03T15:30:39;100577.50;;;5.64;92.81
57234;BME280;43090;52.604;13.318;2023-02-03T15:44:48;100605.94;;;5.45;96.17
57234;BME280;43090;52.604;13.318;2023-02-03T15:47:40;100622.03;;;5.59;95.82
57234;BME280;43090;52.604;13.318;2023-02-03T15:51:20;100622.38;;;5.53;98.25
57234;BME280;43090;52.604;13.318;2023-02-03T15:56:48;100622.59;;;5.31;100.00
57234;BME280;43090;52.604;13.318;2023-02-03T15:59:45;100650.47;;;5.57;100.00
57234;BME280;43090;52.604;13.318;2023-02-03T16:02:47;100580.53;;;5.06;100.00
57234;BME280;43090;52.604;13.318;2023-02-03T16:05:30;100631.88;;;5.40;100.00
57234;BME280;43090;52.604;13.318;2023-02-03T16:08:40;100647.34;;;5.49;100.00
57234;BME280;43090;52.604;13.318;2023-02-03T16:11:26;100625.72;;;5.39;100.00
57234;BME280;43090;52.604;13.318;2023-02-03T16:13:57;100626.28;;;5.28;100.00
57234;BME280;43090;52.604;13.318;2023-02-03T16:16:50;100640.19;;;5.33;100.00
57234;BME280;43090;52.604;13.318;2023-02-03T16:19:34;100653.13;;;5.40;100.00
57234;BME280;43090;52.604;13.318;2023-02-03T16:22:36;100624.25;;;5.33;99.53
57234;BME280;43090;52.604;13.318;2023-02-03T16:25:22;100666.91;;;5.48;100.00
57234;BME280;43090;52.604;13.318;2023-02-03T16:28:16;100682.50;;;5.54;100.00
57234;BME280;43090;52.604;13.318;2023-02-03T16:31:20;100667.66;;;5.50;100.00
57234;BME280;43090;52.604;13.318;2023-02-03T16:34:24;100645.03;;;5.25;100.00
57234;BME280;43090;52.604;13.318;2023-02-03T16:37:33;100613.63;;;5.16;100.00
57234;BME280;43090;52.604;13.318;2023-02-03T16:43:54;100689.16;;;5.45;100.00
57234;BME280;43090;52.604;13.318;2023-02-03T16:46:58;100634.72;;;5.19;100.00
57234;BME280;43090;52.604;13.318;2023-02-03T16:50:01;100660.63;;;5.31;100.00
57234;BME280;43090;52.604;13.318;2023-02-03T16:53:04;100628.44;;;5.03;100.00
57234;BME280;43090;52.604;13.318;2023-02-03T16:55:34;100623.13;;;5.03;100.00
57234;BME280;43090;52.604;13.318;2023-02-03T16:58:01;100628.22;;;5.07;100.00
57234;BME280;43090;52.604;13.318;2023-02-03T17:00:28;100688.44;;;5.42;100.00
57234;BME280;43090;52.604;13.318;2023-02-03T17:06:32;100691.72;;;5.47;100.00
57234;BME280;43090;52.604;13.318;2023-02-03T17:09:39;100643.50;;;5.02;100.00
57234;BME280;43090;52.604;13.318;2023-02-03T17:12:05;100655.94;;;5.19;99.34
57234;BME280;43090;52.604;13.318;2023-02-03T17:14:32;100696.00;;;5.32;99.83
57234;BME280;43090;52.604;13.318;2023-02-03T17:16:58;100686.72;;;5.41;99.09
57234;BME280;43090;52.604;13.318;2023-02-03T17:19:25;100670.31;;;5.32;98.11
57234;BME280;43090;52.604;13.318;2023-02-03T17:22:01;100672.88;;;5.34;97.61
57234;BME280;43090;52.604;13.318;2023-02-03T17:24:41;100671.66;;;5.41;95.90
57234;BME280;43090;52.604;13.318;2023-02-03T17:27:08;100668.28;;;5.38;95.51
57234;BME280;43090;52.604;13.318;2023-02-03T17:29:34;100695.94;;;5.51;96.27
57234;BME280;43090;52.604;13.318;2023-02-03T17:32:07;100675.78;;;5.29;95.61
57234;BME280;43090;52.604;13.318;2023-02-03T17:34:34;100673.44;;;5.41;92.90
57234;BME280;43090;52.604;13.318;2023-02-03T17:37:00;100674.06;;;5.46;93.46
57234;BME280;43090;52.604;13.318;2023-02-03T17:39:27;100669.78;;;5.43;93.23
57234;BME280;43090;52.604;13.318;2023-02-03T17:42:11;100690.78;;;5.48;92.86
57234;BME280;43090;52.604;13.318;2023-02-03T17:44:55;100704.38;;;5.59;92.47
57234;BME280;43090;52.604;13.318;2023-02-03T17:47:41;100706.47;;;5.53;94.02
57234;BME280;43090;52.604;13.318;2023-02-03T17:50:25;100688.28;;;5.45;93.71
57234;BME280;43090;52.604;13.318;2023-02-03T17:53:12;100707.03;;;5.42;92.67
57234;BME280;43090;52.604;13.318;2023-02-03T17:55:40;100723.50;;;5.48;93.81
57234;BME280;43090;52.604;13.318;2023-02-03T17:58:10;100752.81;;;5.64;93.91
57234;BME280;43090;52.604;13.318;2023-02-03T18:00:38;100724.81;;;5.40;93.97
57234;BME280;43090;52.604;13.318;2023-02-03T18:03:05;100725.31;;;5.48;93.49
57234;BME280;43090;52.604;13.318;2023-02-03T18:05:34;100695.59;;;5.40;91.70
57234;BME280;43090;52.604;13.318;2023-02-03T18:08:02;100722.81;;;5.62;91.46
57234;BME280;43090;52.604;13.318;2023-02-03T18:10:43;100729.81;;;5.46;93.28
57234;BME280;43090;52.604;13.318;2023-02-03T18:13:23;100723.41;;;5.50;92.50
57234;BME280;43090;52.604;13.318;2023-02-03T18:16:11;100766.50;;;5.74;92.32
57234;BME280;43090;52.604;13.318;2023-02-03T18:18:42;100724.34;;;5.49;93.27
57234;BME280;43090;52.604;13.318;2023-02-03T18:21:10;100765.53;;;5.75;92.18
57234;BME280;43090;52.604;13.318;2023-02-03T18:23:55;100709.69;;;5.42;92.27
57234;BME280;43090;52.604;13.318;2023-02-03T18:26:59;100722.41;;;5.53;92.27
57234;BME280;43090;52.604;13.318;2023-02-03T18:29:52;100701.97;;;5.37;93.34
57234;BME280;43090;52.604;13.318;2023-02-03T18:36:36;100715.84;;;5.42;91.58